Time;durP1;ratioP1;P1;durP2;ratioP2;P2;SDS_P1;SDS_P2;PMS_P1;PMS_P2;Temp;Humidity;BMP_temperature;BMP_pressure;BME280_temperature;BME280_humidity;BME280_pressure;Samples;Min_cycle;Max_cycle;Signal;HPM_P1;HPM_P2
2022/12/04 00:00:37;;;;;;;;;24.25;24.25;;;;;5.58;64.35;100922.78;5055673;28;45595;-79
2022/12/04 00:03:02;;;;;;;;;22.25;20.50;;;;;5.56;64.65;100925.47;5037633;28;48659;-78
2022/12/04 00:05:27;;;;;;;;;31.75;23.00;;;;;5.60;64.72;100921.84;5045321;28;45304;-76
2022/12/04 00:07:53;;;;;;;;;32.00;26.50;;;;;5.61;64.15;100922.72;5055922;28;45867;-76
2022/12/04 00:10:18;;;;;;;;;27.00;24.75;;;;;5.62;64.21;100921.78;5055807;28;45488;-78
2022/12/04 00:12:43;;;;;;;;;36.25;29.00;;;;;5.47;64.33;100893.75;5055685;28;46275;-77
2022/12/04 00:15:10;;;;;;;;;32.25;27.50;;;;;5.57;63.95;100921.91;5037625;28;45438;-77
2022/12/04 00:17:36;;;;;;;;;30.50;28.25;;;;;5.56;64.60;100909.50;5055658;28;45319;-76
2022/12/04 00:20:01;;;;;;;;;31.00;25.00;;;;;5.50;64.03;100901.69;5055771;28;45521;-79
2022/12/04 00:22:26;;;;;;;;;26.25;22.50;;;;;5.55;63.79;100906.88;5055335;28;45212;-76
2022/12/04 00:24:53;;;;;;;;;36.00;32.25;;;;;5.51;64.22;100907.88;5055687;28;45284;-79
2022/12/04 00:27:18;;;;;;;;;36.25;31.25;;;;;5.45;64.57;100914.19;5055704;28;45389;-76
2022/12/04 00:29:43;;;;;;;;;33.75;29.75;;;;;5.43;64.36;100924.00;5055564;28;45676;-77
2022/12/04 05:30:05;;;;;;;;;36.00;31.75;;;;;6.14;62.35;100800.81;5055789;27;45473;-75
2022/12/04 05:32:31;;;;;;;;;28.25;26.75;;;;;6.18;62.74;100814.00;5053925;28;45564;-79
2022/12/04 05:34:57;;;;;;;;;31.00;26.25;;;;;6.11;62.94;100806.22;5054659;28;45368;-79
2022/12/04 05:37:23;;;;;;;;;37.50;34.25;;;;;6.04;62.91;100811.69;5054107;28;45342;-76
2022/12/04 05:39:48;;;;;;;;;38.00;34.00;;;;;5.98;62.51;100822.50;5054152;28;45200;-76
2022/12/04 05:42:14;;;;;;;;;36.00;29.25;;;;;5.98;62.95;100843.78;5054474;28;45389;-78
2022/12/04 05:44:39;;;;;;;;;36.75;33.00;;;;;5.92;63.03;100843.06;5054469;28;45509;-77
2022/12/04 05:47:05;;;;;;;;;41.50;31.00;;;;;5.88;63.09;100841.41;5053937;28;45245;-75
2022/12/04 05:49:32;;;;;;;;;34.25;31.75;;;;;5.79;63.23;100839.81;5054571;28;45817;-77
2022/12/04 05:51:57;;;;;;;;;36.00;32.75;;;;;5.80;63.61;100851.31;5048591;28;45491;-76
2022/12/04 05:54:23;;;;;;;;;47.00;38.00;;;;;5.56;63.75;100819.09;5034368;28;45312;-76
2022/12/04 05:56:49;;;;;;;;;33.50;30.25;;;;;5.75;64.10;100853.22;5033704;28;46164;-76
2022/12/04 05:59:14;;;;;;;;;29.25;26.75;;;;;5.74;64.24;100849.69;5041287;28;45362;-76
2022/12/04 06:01:43;;;;;;;;;22.25;18.75;;;;;5.78;64.38;100855.81;5035420;28;45438;-77
2022/12/04 06:04:10;;;;;;;;;45.00;35.75;;;;;5.80;64.15;100846.88;5029783;28;45441;-76
2022/12/04 06:06:36;;;;;;;;;34.00;30.75;;;;;5.83;64.07;100859.25;5029854;28;46415;-77
2022/12/04 06:09:03;;;;;;;;;40.50;36.75;;;;;5.79;64.22;100854.88;5048058;28;45488;-78
2022/12/04 06:11:31;;;;;;;;;42.50;36.50;;;;;5.79;63.80;100846.91;5053014;28;45488;-77
2022/12/04 06:13:59;;;;;;;;;35.25;34.00;;;;;5.83;63.78;100857.44;5046643;28;45391;-77
2022/12/04 06:16:28;;;;;;;;;31.00;27.75;;;;;5.85;64.11;100852.09;5052152;28;45365;-76
2022/12/04 06:18:56;;;;;;;;;30.75;28.00;;;;;5.83;63.73;100841.50;5045621;28;45531;-75
2022/12/04 06:21:24;;;;;;;;;39.75;35.50;;;;;5.76;63.73;100839.91;5054262;28;45411;-77
2022/12/04 06:23:51;;;;;;;;;38.25;33.25;;;;;5.79;64.02;100847.78;5055753;28;45376;-75
2022/12/04 06:26:17;;;;;;;;;36.00;33.50;;;;;5.71;64.30;100840.00;5053955;28;45480;-78
2022/12/04 06:28:42;;;;;;;;;31.25;30.25;;;;;5.76;64.20;100845.22;5053808;28;45498;-77
2022/12/04 06:31:10;;;;;;;;;34.50;29.50;;;;;5.83;64.48;100828.19;5053630;28;45488;-76
2022/12/04 06:33:36;;;;;;;;;45.75;37.75;;;;;5.76;64.33;100831.03;5047199;28;45483;-74
2022/12/04 06:36:08;;;;;;;;;35.25;30.00;;;;;5.80;64.04;100852.19;5049552;28;45520;-77
2022/12/04 06:38:34;;;;;;;;;37.00;33.50;;;;;5.81;64.43;100850.41;5050176;28;45402;-78
2022/12/04 06:41:06;;;;;;;;;33.75;27.00;;;;;5.75;64.38;100842.59;5032436;28;45486;-77
2022/12/04 06:43:32;;;;;;;;;36.00;33.75;;;;;5.81;64.27;100855.72;5049620;28;45423;-75
2022/12/04 06:46:05;;;;;;;;;38.00;32.00;;;;;5.82;64.11;100868.13;5050499;28;46275;-78
2022/12/04 06:48:31;;;;;;;;;42.00;36.50;;;;;5.67;64.17;100851.63;5029611;28;46117;-76
2022/12/04 06:51:04;;;;;;;;;33.25;31.25;;;;;5.75;64.07;100861.22;5052995;28;45554;-75
2022/12/04 06:53:31;;;;;;;;;37.50;29.75;;;;;5.75;64.26;100863.88;5051582;28;45178;-77
2022/12/04 06:56:02;;;;;;;;;32.25;30.25;;;;;5.74;64.55;100857.66;5057245;28;47176;-77
2022/12/04 06:58:28;;;;;;;;;50.50;40.25;;;;;5.76;64.69;100873.59;5057215;28;45252;-79
2022/12/04 07:00:54;;;;;;;;;38.75;34.50;;;;;5.76;64.23;100866.50;5046771;28;45352;-75
2022/12/04 07:03:21;;;;;;;;;35.00;30.00;;;;;5.74;64.57;100870.09;5054605;28;45553;-76
2022/12/04 07:05:46;;;;;;;;;42.00;33.00;;;;;5.68;64.48;100847.19;5049090;28;45380;-77
2022/12/04 07:08:12;;;;;;;;;45.00;36.75;;;;;5.67;64.90;100854.28;5056364;28;45457;-77
2022/12/04 07:10:38;;;;;;;;;32.25;27.75;;;;;5.71;64.70;100876.34;5057058;28;45579;-75
2022/12/04 07:13:05;;;;;;;;;46.25;35.00;;;;;5.72;64.84;100871.00;5038395;28;46105;-75
2022/12/04 07:15:32;;;;;;;;;33.25;28.75;;;;;5.74;64.69;100873.63;5056651;28;46007;-76
2022/12/04 07:17:58;;;;;;;;;47.00;33.25;;;;;5.64;64.89;100858.81;5056195;28;45448;-78
2022/12/04 07:20:23;;;;;;;;;40.00;32.75;;;;;5.66;64.64;100863.19;5056679;28;45266;-77
2022/12/04 07:22:49;;;;;;;;;37.75;33.25;;;;;5.65;64.99;100868.53;5055916;28;45554;-77
2022/12/04 07:25:15;;;;;;;;;33.00;30.75;;;;;5.68;65.29;100871.13;5056269;28;46032;-76
2022/12/04 07:27:40;;;;;;;;;45.50;34.75;;;;;5.69;65.38;100876.41;5056260;28;45235;-77
2022/12/04 07:30:07;;;;;;;;;41.75;33.00;;;;;5.63;65.06;100863.25;5056524;28;45270;-77
2022/12/04 07:32:33;;;;;;;;;43.75;39.50;;;;;5.71;65.23;100876.34;5049472;28;45357;-77
2022/12/04 07:34:58;;;;;;;;;42.25;29.50;;;;;5.68;65.58;100868.47;5049552;28;45385;-76
2022/12/04 07:37:23;;;;;;;;;41.25;34.00;;;;;5.74;65.54;100880.75;5023798;28;45374;-75
2022/12/04 07:39:52;;;;;;;;;37.00;37.00;;;;;5.73;65.23;100874.53;5056430;28;46027;-77
2022/12/04 07:42:18;;;;;;;;;39.50;35.75;;;;;5.78;65.20;100875.31;5055737;28;45639;-76
2022/12/04 07:44:44;;;;;;;;;33.50;33.50;;;;;5.80;65.51;100865.50;5056415;28;45520;-78
2022/12/04 07:47:09;;;;;;;;;40.25;37.50;;;;;5.85;64.99;100873.38;5055933;28;45336;-77
2022/12/04 07:49:35;;;;;;;;;40.50;34.75;;;;;5.85;65.01;100866.28;5056335;28;45372;-77
2022/12/04 07:52:00;;;;;;;;;27.25;26.50;;;;;5.81;64.98;100866.38;5045352;28;45233;-79
2022/12/04 07:54:26;;;;;;;;;38.75;34.00;;;;;5.88;64.89;100865.34;5020824;28;48362;-78
2022/12/04 07:56:51;;;;;;;;;43.25;38.00;;;;;5.86;64.77;100848.53;5056526;28;45365;-79
2022/12/04 07:59:17;;;;;;;;;39.00;36.50;;;;;5.75;64.96;100839.94;5042068;28;45400;-74
2022/12/04 08:01:42;;;;;;;;;47.25;41.25;;;;;5.86;65.14;100854.72;5056346;28;45259;-77
2022/12/04 08:04:09;;;;;;;;;45.25;38.25;;;;;5.89;65.05;100859.97;5047644;28;45350;-74
2022/12/04 08:06:35;;;;;;;;;50.25;40.50;;;;;5.88;65.28;100858.22;5055115;28;45402;-76
2022/12/04 08:09:00;;;;;;;;;43.00;38.50;;;;;5.79;64.86;100847.78;5037260;28;45347;-74
2022/12/04 08:11:27;;;;;;;;;45.00;38.00;;;;;5.85;64.85;100855.63;5057978;28;45630;-76
2022/12/04 08:13:57;;;;;;;;;45.00;38.00;;;;;5.84;65.65;100845.03;5055977;28;45450;-75
2022/12/04 08:16:23;;;;;;;;;45.00;40.00;;;;;5.93;65.29;100853.69;5055614;28;45243;-76
2022/12/04 08:18:48;;;;;;;;;51.25;39.00;;;;;5.95;65.51;100851.88;5056022;28;45481;-74
2022/12/04 08:21:19;;;;;;;;;47.25;37.75;;;;;6.01;65.13;100854.38;5036786;28;47138;-74
2022/12/04 08:23:45;;;;;;;;;43.75;37.75;;;;;6.03;64.88;100857.88;5055437;28;45405;-74
2022/12/04 08:26:12;;;;;;;;;43.50;38.50;;;;;6.00;64.89;100844.63;5055564;28;45312;-73
2022/12/04 08:28:39;;;;;;;;;43.00;38.25;;;;;6.03;65.23;100849.88;5055209;28;45336;-76
2022/12/04 08:31:14;;;;;;;;;50.50;39.75;;;;;5.90;64.77;100824.47;5037636;28;45491;-73
2022/12/04 08:33:41;;;;;;;;;46.25;40.25;;;;;6.12;65.21;100862.09;5055363;28;46017;-77
2022/12/04 08:36:09;;;;;;;;;43.25;39.75;;;;;6.11;64.33;100854.13;5055598;28;45377;-75
2022/12/04 08:38:35;;;;;;;;;44.00;37.50;;;;;6.13;64.81;100854.94;5037026;28;45390;-74
2022/12/04 08:41:02;;;;;;;;;43.50;38.25;;;;;6.12;64.64;100859.44;5055567;28;46424;-76
2022/12/04 08:43:28;;;;;;;;;42.75;38.00;;;;;6.14;64.23;100870.00;5036110;28;47320;-78
2022/12/04 08:45:57;;;;;;;;;36.50;30.50;;;;;6.12;64.35;100869.19;5055537;28;45325;-73
2022/12/04 08:48:25;;;;;;;;;42.25;38.25;;;;;6.15;64.73;100863.78;5055229;28;45398;-74
2022/12/04 08:50:50;;;;;;;;;39.50;34.25;;;;;6.10;64.68;100868.34;5055038;28;45257;-76
2022/12/04 08:53:16;;;;;;;;;47.50;37.75;;;;;5.95;64.37;100840.34;5052953;28;48026;-75
2022/12/04 08:55:41;;;;;;;;;45.25;36.50;;;;;6.16;64.68;100885.03;5055061;28;45366;-76
2022/12/04 08:58:06;;;;;;;;;47.25;38.75;;;;;6.21;64.26;100883.13;5036931;28;45533;-74
2022/12/04 09:00:32;;;;;;;;;38.75;30.50;;;;;6.21;64.74;100882.28;5044797;28;49761;-78
2022/12/04 09:02:57;;;;;;;;;45.25;40.00;;;;;6.17;64.53;100886.78;5055126;28;45324;-75
2022/12/04 09:05:22;;;;;;;;;47.75;39.75;;;;;6.19;64.22;100881.44;5045156;28;45251;-77
2022/12/04 09:07:48;;;;;;;;;36.50;31.50;;;;;6.15;64.13;100869.09;5055088;28;45451;-77
2022/12/04 09:10:13;;;;;;;;;53.50;41.50;;;;;6.03;64.99;100854.34;5054978;28;45621;-77
2022/12/04 09:12:39;;;;;;;;;49.75;38.00;;;;;6.19;64.11;100876.09;5036882;28;46201;-76
2022/12/04 09:15:05;;;;;;;;;38.75;36.25;;;;;6.12;64.86;100863.88;5055145;28;45284;-75
2022/12/04 09:17:30;;;;;;;;;56.75;42.00;;;;;6.12;64.66;100858.53;5054937;28;45494;-76
2022/12/04 09:19:56;;;;;;;;;54.00;39.50;;;;;6.08;64.13;100849.75;5036671;28;45600;-75
2022/12/04 09:22:22;;;;;;;;;46.25;40.50;;;;;6.10;64.21;100857.72;5054446;28;45403;-74
2022/12/04 09:24:48;;;;;;;;;51.75;40.00;;;;;6.23;64.15;100886.63;5054860;28;45379;-76
2022/12/04 09:27:13;;;;;;;;;45.50;38.25;;;;;6.22;64.41;100870.69;5055571;28;45500;-75
2022/12/04 09:29:39;;;;;;;;;48.50;40.00;;;;;6.30;64.37;100874.00;5056825;28;45481;-76
2022/12/04 09:32:05;;;;;;;;;46.50;40.75;;;;;6.35;63.94;100877.44;5037852;28;47047;-74
2022/12/04 09:34:31;;;;;;;;;41.00;36.00;;;;;6.35;64.31;100865.00;5038356;28;45346;-74
2022/12/04 09:36:56;;;;;;;;;47.75;38.00;;;;;6.23;63.99;100846.69;5056955;28;45391;-76
2022/12/04 09:39:21;;;;;;;;;45.75;39.25;;;;;6.31;64.29;100858.00;5056606;28;45232;-75
2022/12/04 09:41:50;;;;;;;;;33.25;31.25;;;;;6.44;64.25;100878.09;5055859;28;45935;-76
2022/12/04 09:44:53;;;;;;;;;42.25;36.75;;;;;6.49;64.14;100877.94;5055018;28;45339;-75
2022/12/04 09:47:25;;;;;;;;;51.75;43.50;;;;;6.51;63.60;100886.78;4973089;28;45318;-75
2022/12/04 09:50:06;;;;;;;;;44.50;39.50;;;;;6.44;63.60;100869.22;5040943;28;45507;-76
2022/12/04 09:52:43;;;;;;;;;43.75;39.75;;;;;6.51;63.43;100891.22;5054747;28;46274;-75
2022/12/04 09:55:16;;;;;;;;;41.50;36.50;;;;;6.49;63.78;100888.59;5054796;28;45419;-76
2022/12/04 09:57:47;;;;;;;;;46.50;39.50;;;;;6.47;63.67;100872.66;5055003;28;45319;-75
2022/12/04 10:00:15;;;;;;;;;48.00;38.50;;;;;6.51;63.53;100876.13;5054523;28;45478;-76
2022/12/04 10:02:47;;;;;;;;;52.25;41.25;;;;;6.52;63.27;100877.88;5054378;28;45667;-79
2022/12/04 10:05:24;;;;;;;;;44.50;36.50;;;;;6.26;63.60;100827.09;5044077;28;45421;-74
2022/12/04 10:08:06;;;;;;;;;41.00;29.50;;;;;6.47;63.56;100859.34;5036363;28;45321;-73
2022/12/04 10:10:36;;;;;;;;;44.00;38.25;;;;;6.51;63.59;100869.91;5054975;28;45300;-79
2022/12/04 10:13:05;;;;;;;;;42.50;38.75;;;;;6.52;63.78;100875.22;5058305;28;46625;-79
2022/12/04 10:15:51;;;;;;;;;44.75;40.25;;;;;6.53;63.23;100868.09;5058651;28;45209;-77
2022/12/04 10:18:43;;;;;;;;;46.25;39.50;;;;;6.53;63.36;100868.97;5059881;28;45335;-77
2022/12/04 10:21:36;;;;;;;;;52.00;39.00;;;;;6.56;63.88;100868.00;5058834;28;45344;-76
2022/12/04 10:24:44;;;;;;;;;48.25;38.00;;;;;6.56;63.43;100871.53;5057532;28;46703;-77
2022/12/04 10:27:19;;;;;;;;;47.75;41.50;;;;;6.47;63.50;100864.66;5058233;28;45421;-77
2022/12/04 10:29:50;;;;;;;;;46.00;38.50;;;;;6.37;63.62;100843.69;5057714;28;45329;-75
2022/12/04 10:32:23;;;;;;;;;49.00;39.50;;;;;6.42;63.31;100847.06;5056974;28;45686;-76
2022/12/04 10:34:52;;;;;;;;;40.25;37.00;;;;;6.35;63.39;100832.19;5039129;28;47783;-75
2022/12/04 10:37:18;;;;;;;;;45.25;36.25;;;;;6.39;63.72;100832.03;5056710;28;45478;-76
2022/12/04 10:39:51;;;;;;;;;44.00;35.75;;;;;6.52;63.90;100859.22;5057430;28;45604;-74
2022/12/04 10:42:46;;;;;;;;;41.00;37.25;;;;;6.56;63.38;100858.22;5038704;28;45486;-74
2022/12/04 10:45:12;;;;;;;;;48.50;40.75;;;;;6.59;63.32;100867.91;5056718;28;45383;-76
2022/12/04 10:47:44;;;;;;;;;45.50;40.00;;;;;6.54;63.36;100852.06;5039060;28;45344;-74
2022/12/04 10:50:21;;;;;;;;;44.25;37.00;;;;;6.58;63.31;100858.16;5056784;28;45509;-75
2022/12/04 10:52:47;;;;;;;;;46.75;40.50;;;;;6.59;63.45;100866.13;5056878;28;45578;-76
2022/12/04 10:55:14;;;;;;;;;48.50;41.25;;;;;6.60;63.53;100861.69;5056633;28;46171;-79
2022/12/04 10:57:43;;;;;;;;;44.50;37.00;;;;;6.44;63.55;100840.81;5057025;28;45283;-77
2022/12/04 11:00:25;;;;;;;;;52.25;40.00;;;;;6.62;63.58;100873.16;5048083;28;45274;-76
2022/12/04 11:02:56;;;;;;;;;59.50;41.75;;;;;6.56;64.05;100836.91;5038634;28;45503;-75
2022/12/04 11:05:33;;;;;;;;;56.75;41.25;;;;;6.51;63.72;100828.19;5046122;28;45377;-75
2022/12/04 11:08:01;;;;;;;;;41.50;39.25;;;;;6.51;64.11;100822.84;5053966;28;45655;-74
2022/12/04 11:10:35;;;;;;;;;44.50;39.00;;;;;6.71;63.88;100847.16;5054899;28;45387;-76
2022/12/04 11:13:05;;;;;;;;;43.25;35.50;;;;;6.72;63.54;100854.19;5048169;28;45402;-77
2022/12/04 11:15:41;;;;;;;;;44.00;41.00;;;;;6.60;63.35;100835.91;5053015;28;46276;-76
2022/12/04 11:18:14;;;;;;;;;47.75;39.00;;;;;6.73;63.23;100863.94;5038004;28;45404;-76
2022/12/04 11:20:48;;;;;;;;;40.75;35.25;;;;;6.72;63.33;100848.88;5056163;28;45534;-77
2022/12/04 11:23:15;;;;;;;;;42.75;37.25;;;;;6.75;63.85;100842.59;5056000;28;45469;-77
2022/12/04 11:25:47;;;;;;;;;53.25;41.50;;;;;6.79;63.54;100841.59;5056421;28;45418;-78
2022/12/04 11:28:17;;;;;;;;;50.25;39.75;;;;;6.79;63.78;100838.94;5038277;28;45461;-77
2022/12/04 11:30:48;;;;;;;;;38.75;34.25;;;;;6.80;63.53;100838.03;5038308;28;45467;-75
2022/12/04 11:33:18;;;;;;;;;44.00;36.25;;;;;6.80;63.46;100844.19;5056738;28;45507;-75
2022/12/04 11:35:58;;;;;;;;;51.00;39.00;;;;;6.82;63.21;100837.03;5056708;28;45341;-76
2022/12/04 11:38:27;;;;;;;;;42.75;35.00;;;;;6.84;63.57;100842.31;5057711;28;45349;-78
2022/12/04 11:40:58;;;;;;;;;39.75;36.25;;;;;6.87;63.50;100838.72;5039023;28;45359;-73
2022/12/04 11:43:29;;;;;;;;;50.00;41.25;;;;;6.87;63.74;100834.25;5037877;28;45375;-76
2022/12/04 11:46:02;;;;;;;;;43.00;37.00;;;;;6.92;63.79;100839.44;5056456;28;45642;-73
2022/12/04 11:48:40;;;;;;;;;46.50;37.25;;;;;6.75;63.62;100803.50;5056050;28;45237;-75
2022/12/04 11:51:24;;;;;;;;;49.25;40.00;;;;;6.95;63.96;100816.25;5056263;28;45376;-74
2022/12/04 11:53:59;;;;;;;;;44.25;36.00;;;;;6.98;63.78;100824.13;5042136;28;45909;-73
2022/12/04 11:56:32;;;;;;;;;41.25;38.00;;;;;7.02;63.50;100827.59;5055952;28;46496;-74
2022/12/04 11:59:03;;;;;;;;;60.75;43.75;;;;;7.04;63.39;100815.09;5060361;28;45493;-74
2022/12/04 12:01:43;;;;;;;;;43.75;39.50;;;;;6.96;63.48;100806.47;5058672;28;45391;-74
2022/12/04 12:04:36;;;;;;;;;50.75;41.00;;;;;7.06;63.41;100810.59;5037799;28;47268;-72
2022/12/04 12:07:10;;;;;;;;;46.75;36.75;;;;;7.07;63.36;100805.19;5045543;28;45333;-75
2022/12/04 12:10:13;;;;;;;;;43.50;34.50;;;;;7.08;63.66;100806.94;5037320;28;45319;-75
2022/12/04 12:13:00;;;;;;;;;44.25;37.75;;;;;7.09;63.75;100794.50;5057576;28;45533;-73
2022/12/04 12:15:41;;;;;;;;;46.00;40.00;;;;;7.09;63.81;100798.03;5057946;28;45334;-70
2022/12/04 12:18:13;;;;;;;;;36.25;29.50;;;;;7.08;63.68;100806.06;5042336;28;47451;-75
2022/12/04 12:20:59;;;;;;;;;49.00;41.00;;;;;7.06;64.01;100803.44;5060922;28;45551;-74
2022/12/04 12:24:08;;;;;;;;;45.75;38.75;;;;;6.89;63.72;100779.09;5060545;28;45212;-73
2022/12/04 12:26:54;;;;;;;;;41.25;37.25;;;;;6.97;64.16;100793.09;5046424;28;45291;-75
2022/12/04 12:29:56;;;;;;;;;41.25;36.50;;;;;7.02;64.36;100800.94;5055479;28;46537;-74
2022/12/04 12:32:51;;;;;;;;;48.75;40.75;;;;;7.02;63.83;100804.47;5055370;28;45617;-73
2022/12/04 12:35:43;;;;;;;;;48.50;39.00;;;;;6.95;63.95;100789.59;5054556;28;45271;-75
2022/12/04 12:38:13;;;;;;;;;45.75;37.25;;;;;6.84;64.24;100771.25;5049813;28;45378;-74
2022/12/04 12:40:46;;;;;;;;;42.25;35.50;;;;;6.97;64.46;100800.22;5052734;28;46402;-75
2022/12/04 12:43:23;;;;;;;;;45.25;36.75;;;;;6.94;64.81;100794.97;5047047;28;46104;-77
2022/12/04 12:45:55;;;;;;;;;48.50;33.50;;;;;6.94;64.97;100805.63;5047303;28;45477;-77
2022/12/04 12:49:00;;;;;;;;;38.50;35.00;;;;;6.95;64.66;100808.25;5050690;28;45506;-75
2022/12/04 12:51:28;;;;;;;;;46.25;36.75;;;;;6.96;64.82;100809.13;5029171;28;47362;-75
2022/12/04 12:54:00;;;;;;;;;43.25;38.00;;;;;6.57;65.42;100732.09;5055861;28;45594;-74
2022/12/04 12:56:37;;;;;;;;;53.25;40.75;;;;;6.89;65.43;100787.09;5053725;28;45440;-75
2022/12/04 12:59:10;;;;;;;;;51.75;41.50;;;;;6.96;65.15;100794.00;5055196;28;45328;-76
2022/12/04 13:01:54;;;;;;;;;46.00;38.50;;;;;7.03;64.78;100808.00;5035559;28;47490;-74
2022/12/04 13:04:32;;;;;;;;;34.25;28.25;;;;;7.02;64.99;100803.59;5044098;28;45348;-76
2022/12/04 13:07:28;;;;;;;;;42.75;33.75;;;;;6.99;64.84;100798.34;5054608;28;45364;-75
2022/12/04 13:09:56;;;;;;;;;56.75;43.25;;;;;7.04;65.12;100799.97;5054771;28;46015;-74
2022/12/04 13:12:23;;;;;;;;;48.00;39.50;;;;;7.00;65.42;100784.97;5054297;28;45546;-76
2022/12/04 13:14:49;;;;;;;;;43.75;38.00;;;;;7.08;65.64;100803.41;5054882;28;45385;-78
2022/12/04 13:17:30;;;;;;;;;42.75;37.00;;;;;7.10;64.81;100802.44;5037234;28;45381;-76
2022/12/04 13:19:58;;;;;;;;;54.00;40.50;;;;;7.09;65.09;100794.50;5055070;28;45442;-76
2022/12/04 13:22:37;;;;;;;;;47.00;40.00;;;;;7.18;65.21;100796.88;5054631;28;45338;-76
2022/12/04 13:25:20;;;;;;;;;44.75;38.75;;;;;7.15;65.05;100789.84;5054783;28;45294;-75
2022/12/04 13:28:05;;;;;;;;;45.75;40.25;;;;;7.19;65.22;100804.84;5054854;28;45295;-75
2022/12/04 13:30:45;;;;;;;;;39.00;36.75;;;;;7.14;65.13;100795.25;5054630;28;45315;-76
2022/12/04 13:33:35;;;;;;;;;46.25;38.75;;;;;7.17;64.68;100797.78;5054822;28;45469;-75
2022/12/04 13:36:14;;;;;;;;;46.00;38.25;;;;;7.18;64.87;100804.88;5054877;28;45414;-75
2022/12/04 13:39:18;;;;;;;;;43.75;38.25;;;;;7.15;64.89;100791.63;5036775;28;45608;-75
2022/12/04 13:41:43;;;;;;;;;49.50;41.50;;;;;7.19;64.80;100799.50;5036625;28;45517;-75
2022/12/04 13:44:18;;;;;;;;;45.75;36.00;;;;;7.17;65.19;100788.00;5054930;28;46310;-75
2022/12/04 13:46:59;;;;;;;;;58.25;41.25;;;;;7.18;65.11;100786.22;5060744;28;45257;-75
2022/12/04 13:49:37;;;;;;;;;58.75;44.50;;;;;7.05;64.90;100772.41;5043355;28;45260;-75
2022/12/04 13:52:22;;;;;;;;;47.25;37.75;;;;;7.13;65.03;100782.81;5060858;28;45473;-75
2022/12/04 13:54:58;;;;;;;;;54.75;39.50;;;;;7.32;65.24;100815.97;5059504;28;46458;-74
2022/12/04 13:57:24;;;;;;;;;55.25;42.25;;;;;7.12;64.58;100779.28;5042858;28;45265;-77
2022/12/04 14:00:04;;;;;;;;;56.00;38.50;;;;;7.28;64.62;100816.13;5061183;28;45608;-75
2022/12/04 14:02:34;;;;;;;;;47.25;37.25;;;;;7.19;64.72;100799.50;5061393;28;45373;-74
2022/12/04 14:05:05;;;;;;;;;49.50;39.50;;;;;7.22;64.63;100820.75;5050850;28;45659;-77
2022/12/04 14:07:33;;;;;;;;;47.75;37.50;;;;;7.19;64.89;100818.16;5060764;28;45176;-75
2022/12/04 14:10:07;;;;;;;;;42.75;37.00;;;;;7.14;64.93;100814.78;5061230;28;45276;-77
2022/12/04 14:12:39;;;;;;;;;48.25;39.75;;;;;7.14;65.16;100824.56;5061042;28;45325;-76
2022/12/04 14:15:22;;;;;;;;;55.00;40.50;;;;;7.08;64.67;100814.06;5042560;28;46435;-75
2022/12/04 14:18:02;;;;;;;;;37.50;33.50;;;;;7.10;64.89;100818.44;5042651;28;45494;-76
2022/12/04 14:20:30;;;;;;;;;51.00;41.25;;;;;6.99;65.11;100801.88;5060987;28;45259;-74
2022/12/04 14:23:15;;;;;;;;;50.75;40.00;;;;;6.94;64.76;100798.50;5060520;28;45342;-78
2022/12/04 14:25:42;;;;;;;;;52.50;42.50;;;;;6.96;64.67;100794.00;5060545;28;46134;-76
2022/12/04 14:28:25;;;;;;;;;52.50;40.25;;;;;7.08;64.77;100819.41;5052171;28;45419;-78
2022/12/04 14:31:02;;;;;;;;;44.00;39.75;;;;;7.09;64.51;100823.81;5054209;28;45465;-74
2022/12/04 14:33:31;;;;;;;;;44.25;37.75;;;;;7.08;64.48;100824.72;5061084;28;45426;-76
2022/12/04 14:36:09;;;;;;;;;47.75;40.25;;;;;6.99;65.30;100809.00;5060411;28;46086;-76
2022/12/04 14:38:35;;;;;;;;;40.25;36.00;;;;;6.97;65.33;100827.75;5060849;28;45383;-76
2022/12/04 14:41:02;;;;;;;;;54.25;44.25;;;;;6.99;65.31;100823.22;5061207;28;45428;-77
2022/12/04 14:43:38;;;;;;;;;48.50;37.50;;;;;7.06;64.81;100834.59;5060821;28;45382;-76
2022/12/04 14:46:26;;;;;;;;;52.25;42.75;;;;;7.06;65.26;100834.59;5061253;28;45386;-76
2022/12/04 14:48:57;;;;;;;;;51.75;42.00;;;;;7.09;64.93;100842.47;5061622;28;45244;-74
2022/12/04 14:51:34;;;;;;;;;56.00;40.25;;;;;7.06;64.69;100847.91;5041649;28;45405;-76
2022/12/04 14:54:18;;;;;;;;;47.00;40.50;;;;;7.06;64.91;100835.44;5061072;28;45284;-75
2022/12/04 14:56:55;;;;;;;;;51.25;41.25;;;;;7.05;64.17;100833.72;5062419;28;45406;-76
2022/12/04 14:59:30;;;;;;;;;43.25;38.25;;;;;7.01;64.68;100826.72;5060712;28;45446;-77
2022/12/04 15:01:56;;;;;;;;;57.75;40.25;;;;;7.08;64.85;100852.25;5025401;28;45265;-77
2022/12/04 15:04:29;;;;;;;;;39.00;36.25;;;;;6.67;64.55;100783.31;5046769;28;45668;-75
2022/12/04 15:06:56;;;;;;;;;46.00;37.00;;;;;7.00;64.30;100832.09;5056638;28;46396;-74
2022/12/04 15:12:33;;;;;;;;;55.50;42.25;;;;;6.99;64.67;100825.88;5056998;28;45552;-76
2022/12/04 15:15:34;;;;;;;;;50.00;41.25;;;;;7.08;64.42;100846.06;5057587;28;45519;-74
2022/12/04 15:18:11;;;;;;;;;51.50;41.00;;;;;7.09;64.45;100856.69;4974852;28;45614;-77
2022/12/04 15:21:03;;;;;;;;;50.00;42.50;;;;;7.03;64.27;100851.53;4974474;28;45412;-76
2022/12/04 15:23:43;;;;;;;;;49.50;44.00;;;;;7.09;64.74;100863.81;4972961;28;45475;-77
2022/12/04 15:26:21;;;;;;;;;52.00;40.50;;;;;7.12;64.08;100869.06;5010799;28;45456;-74
2022/12/04 15:28:57;;;;;;;;;48.75;41.25;;;;;7.12;64.53;100872.59;5056347;28;46134;-75
2022/12/04 15:31:25;;;;;;;;;49.00;39.25;;;;;6.89;64.20;100837.72;5038668;28;45829;-76
2022/12/04 15:33:56;;;;;;;;;50.00;42.50;;;;;7.11;64.00;100880.63;5056678;28;45422;-75
2022/12/04 15:36:48;;;;;;;;;54.50;41.25;;;;;7.11;64.43;100881.50;5056326;28;45515;-74
2022/12/04 15:39:21;;;;;;;;;48.00;39.50;;;;;7.12;64.04;100882.38;5056104;28;45544;-75
2022/12/04 15:41:47;;;;;;;;;53.00;41.00;;;;;7.10;64.40;100885.09;5056317;28;45329;-78
2022/12/04 15:44:27;;;;;;;;;48.50;39.00;;;;;7.13;64.19;100889.47;5038567;28;45513;-77
2022/12/04 15:46:55;;;;;;;;;45.75;40.50;;;;;7.13;64.16;100892.13;5056378;28;45715;-74
2022/12/04 15:49:26;;;;;;;;;52.00;38.25;;;;;7.09;63.99;100886.00;5038032;28;48410;-76
2022/12/04 15:52:06;;;;;;;;;42.75;35.00;;;;;7.08;64.62;100886.91;5037394;28;45499;-76
2022/12/04 15:54:35;;;;;;;;;46.50;38.25;;;;;7.11;64.96;100900.16;5055898;28;45461;-77
2022/12/04 15:57:01;;;;;;;;;44.50;39.25;;;;;7.10;64.42;100890.41;5055786;28;45531;-77
2022/12/04 15:59:28;;;;;;;;;54.50;40.50;;;;;7.13;64.29;100893.00;5043332;28;47369;-77
2022/12/04 16:01:59;;;;;;;;;53.25;41.50;;;;;7.11;64.39;100888.63;5042545;28;45471;-74
2022/12/04 16:04:27;;;;;;;;;49.50;39.50;;;;;7.12;63.95;100896.59;5045464;28;45537;-75
2022/12/04 16:06:55;;;;;;;;;53.50;41.75;;;;;7.14;63.79;100894.75;5053744;28;45245;-74
2022/12/04 16:09:24;;;;;;;;;48.50;39.75;;;;;7.00;64.09;100880.94;5050718;28;46322;-75
2022/12/04 16:12:16;;;;;;;;;45.00;39.25;;;;;7.10;64.54;100902.88;5056150;28;45254;-76
2022/12/04 16:14:42;;;;;;;;;54.75;40.00;;;;;7.09;64.61;100904.66;5037742;28;45440;-76
2022/12/04 16:17:10;;;;;;;;;51.75;42.50;;;;;7.07;64.59;100895.81;5055634;28;45613;-74
2022/12/04 16:19:38;;;;;;;;;52.00;41.75;;;;;7.10;64.33;100905.53;5055321;28;46536;-74
2022/12/04 16:22:12;;;;;;;;;50.00;41.00;;;;;7.10;64.57;100901.09;5055107;28;45343;-71
2022/12/04 16:24:38;;;;;;;;;54.25;44.25;;;;;7.10;64.24;100900.22;5055063;28;45479;-73
2022/12/04 16:27:10;;;;;;;;;53.00;42.00;;;;;7.05;64.17;100895.03;5054801;28;45236;-73
2022/12/04 16:29:35;;;;;;;;;45.50;39.25;;;;;6.95;64.21;100882.88;5055342;28;45635;-74
2022/12/04 16:32:00;;;;;;;;;44.00;35.50;;;;;6.99;64.02;100889.84;5055251;28;45253;-74
2022/12/04 16:34:26;;;;;;;;;51.00;41.25;;;;;7.11;64.31;100917.94;5055622;28;45890;-74
2022/12/04 16:36:51;;;;;;;;;49.25;39.00;;;;;7.12;64.23;100917.91;5054805;28;45208;-75
2022/12/04 16:39:17;;;;;;;;;48.75;40.25;;;;;7.12;64.31;100912.59;5055155;28;45467;-75